createdAt,value
2022-12-03T00:00:01.061Z,20.41
2022-12-03T00:01:01.087Z,20.41
2022-12-03T00:02:01.100Z,20.41
2022-12-03T00:03:01.305Z,20.38
2022-12-03T00:04:01.345Z,20.37
2022-12-03T00:05:01.154Z,20.35
2022-12-03T00:06:01.146Z,20.38
2022-12-03T00:07:01.167Z,20.38
2022-12-03T00:08:01.258Z,20.37
2022-12-03T00:09:01.189Z,20.37
2022-12-03T00:10:01.193Z,20.38
2022-12-03T00:11:01.195Z,20.37
2022-12-03T00:12:01.216Z,20.34
2022-12-03T00:13:01.269Z,20.34
2022-12-03T00:14:01.214Z,20.34
2022-12-03T00:15:01.238Z,20.34
2022-12-03T00:16:01.325Z,20.34
2022-12-03T00:17:01.252Z,20.33
2022-12-03T00:18:01.246Z,20.31
2022-12-03T00:19:01.266Z,20.30
2022-12-03T00:20:01.276Z,20.26
2022-12-03T00:21:01.291Z,20.26
2022-12-03T00:22:01.288Z,20.26
2022-12-03T00:23:01.313Z,20.25
2022-12-03T00:24:01.313Z,20.25
2022-12-03T00:25:01.327Z,20.25
2022-12-03T00:26:01.322Z,20.25
2022-12-03T00:27:01.344Z,20.23
2022-12-03T00:28:01.343Z,20.23
2022-12-03T00:29:01.454Z,20.22
2022-12-03T00:30:01.357Z,20.22
2022-12-03T00:31:01.428Z,20.19
2022-12-03T00:32:01.388Z,20.19
2022-12-03T00:33:01.392Z,20.16
2022-12-03T00:34:01.406Z,20.16
2022-12-03T00:35:01.410Z,20.13
2022-12-03T00:36:01.403Z,20.12
2022-12-03T00:37:01.395Z,20.10
2022-12-03T00:38:01.425Z,20.12
2022-12-03T00:39:01.408Z,20.08
2022-12-03T00:40:01.423Z,20.10
2022-12-03T00:41:01.410Z,20.08
2022-12-03T00:42:01.435Z,20.08
2022-12-03T00:43:01.430Z,20.07
2022-12-03T00:44:01.427Z,20.07
2022-12-03T00:45:01.453Z,20.07
2022-12-03T00:46:01.483Z,20.08
2022-12-03T00:47:01.538Z,20.07
2022-12-03T00:48:01.450Z,20.05
2022-12-03T00:49:01.472Z,20.05
2022-12-03T00:50:01.477Z,20.08
2022-12-03T00:51:01.504Z,20.08
2022-12-03T00:52:01.507Z,20.08
2022-12-03T00:53:01.498Z,20.07
2022-12-03T00:54:01.496Z,20.05
2022-12-03T00:55:01.527Z,20.05
2022-12-03T00:56:01.767Z,20.04
2022-12-03T00:57:01.574Z,20.04
2022-12-03T00:58:01.565Z,20.04
2022-12-03T00:59:01.564Z,20.04
2022-12-03T01:00:01.588Z,20.04
2022-12-03T01:01:01.605Z,20.02
2022-12-03T01:02:01.699Z,20.04
2022-12-03T01:03:01.625Z,20.02
2022-12-03T01:04:01.624Z,20.01
2022-12-03T01:05:01.722Z,20.02
2022-12-03T01:06:01.622Z,20.02
2022-12-03T01:07:01.614Z,20.01
2022-12-03T01:08:01.708Z,20.01
2022-12-03T01:09:01.639Z,20.00
2022-12-03T01:10:01.632Z,19.98
2022-12-03T01:11:01.630Z,19.98
2022-12-03T01:12:01.655Z,19.97
2022-12-03T01:13:01.685Z,19.98
2022-12-03T01:14:01.678Z,19.98
2022-12-03T01:15:01.677Z,19.97
2022-12-03T01:16:01.726Z,19.95
2022-12-03T01:17:01.698Z,19.97
2022-12-03T01:18:01.696Z,19.95
2022-12-03T01:19:01.760Z,19.95
2022-12-03T01:20:01.746Z,19.97
2022-12-03T01:21:01.750Z,19.94
2022-12-03T01:22:01.770Z,19.94
2022-12-03T01:23:01.788Z,19.94
2022-12-03T01:24:02.045Z,19.94
2022-12-03T01:25:01.790Z,19.92
2022-12-03T01:26:01.789Z,19.94
2022-12-03T01:27:01.782Z,19.92
2022-12-03T01:28:01.806Z,19.94
2022-12-03T01:29:01.828Z,19.90
2022-12-03T01:30:01.864Z,19.89
2022-12-03T01:31:01.940Z,19.89
2022-12-03T01:32:01.899Z,19.87
2022-12-03T01:33:01.937Z,19.87
2022-12-03T01:34:01.935Z,19.86
2022-12-03T01:35:01.933Z,19.86
2022-12-03T01:36:01.926Z,19.89
2022-12-03T01:37:01.919Z,19.90
2022-12-03T01:38:01.934Z,19.94
2022-12-03T01:39:01.962Z,19.97
2022-12-03T01:40:01.977Z,20.01
2022-12-03T01:41:04.005Z,20.07
2022-12-03T01:42:01.954Z,20.15
2022-12-03T01:43:01.944Z,20.20
2022-12-03T01:44:01.981Z,20.27
2022-12-03T01:45:01.988Z,20.38
2022-12-03T01:46:01.984Z,20.54
2022-12-03T01:47:02.086Z,20.64
2022-12-03T01:48:01.986Z,20.75
2022-12-03T01:49:02.040Z,20.79
2022-12-03T01:50:02.045Z,20.82
2022-12-03T01:51:02.042Z,20.87
2022-12-03T01:52:02.041Z,20.96
2022-12-03T01:53:02.042Z,20.98
2022-12-03T01:54:02.067Z,21.01
2022-12-03T01:55:02.102Z,21.03
2022-12-03T01:56:02.080Z,21.08
2022-12-03T01:57:02.089Z,21.09
2022-12-03T01:58:02.125Z,21.13
2022-12-03T01:59:02.117Z,21.15
2022-12-03T02:00:02.116Z,21.22
2022-12-03T02:01:02.111Z,21.26
2022-12-03T02:02:02.248Z,21.31
2022-12-03T02:03:02.137Z,21.33
2022-12-03T02:04:02.244Z,21.38
2022-12-03T02:05:02.159Z,21.38
2022-12-03T02:06:02.159Z,21.38
2022-12-03T02:07:02.149Z,21.37
2022-12-03T02:08:02.288Z,21.42
2022-12-03T02:09:02.147Z,21.40
2022-12-03T02:10:02.191Z,21.43
2022-12-03T02:11:02.199Z,21.45
2022-12-03T02:12:02.222Z,21.43
2022-12-03T02:13:02.245Z,21.46
2022-12-03T02:14:02.237Z,21.48
2022-12-03T02:15:02.238Z,21.49
2022-12-03T02:16:02.295Z,21.49
2022-12-03T02:17:02.237Z,21.49
2022-12-03T02:18:02.243Z,21.49
2022-12-03T02:19:02.232Z,21.48
2022-12-03T02:20:02.255Z,21.49
2022-12-03T02:21:02.310Z,21.51
2022-12-03T02:22:02.517Z,21.49
2022-12-03T02:23:02.321Z,21.51
2022-12-03T02:24:02.339Z,21.51
2022-12-03T02:25:02.369Z,21.49
2022-12-03T02:26:02.385Z,21.52
2022-12-03T02:27:02.411Z,21.52
2022-12-03T02:28:02.408Z,21.52
2022-12-03T02:29:02.412Z,21.51
2022-12-03T02:30:02.423Z,21.53
2022-12-03T02:31:02.466Z,21.53
2022-12-03T02:32:02.430Z,21.52
2022-12-03T02:33:02.425Z,21.51
2022-12-03T02:34:02.453Z,21.51
2022-12-03T02:35:02.476Z,21.51
2022-12-03T02:36:04.010Z,21.53
2022-12-03T02:37:02.535Z,21.49
2022-12-03T02:38:02.524Z,21.49
2022-12-03T02:39:02.528Z,21.46
2022-12-03T02:40:02.528Z,21.48
2022-12-03T02:41:02.529Z,21.49
2022-12-03T02:42:02.528Z,21.48
2022-12-03T02:43:02.522Z,21.48
2022-12-03T02:44:02.524Z,21.48
2022-12-03T02:45:05.402Z,21.48
2022-12-03T02:46:02.537Z,21.48
2022-12-03T02:47:02.624Z,21.48
2022-12-03T02:48:02.538Z,21.46
2022-12-03T02:49:02.531Z,21.49
2022-12-03T02:50:02.561Z,21.48
2022-12-03T02:51:02.577Z,21.48
2022-12-03T02:52:02.618Z,21.46
2022-12-03T02:53:02.599Z,21.46
2022-12-03T02:54:02.602Z,21.46
2022-12-03T02:55:02.638Z,21.43
2022-12-03T02:56:02.656Z,21.46
2022-12-03T02:57:02.651Z,21.43
2022-12-03T02:58:02.653Z,21.43
2022-12-03T02:59:02.671Z,21.43
2022-12-03T03:00:02.679Z,21.43
2022-12-03T03:01:02.805Z,21.43
2022-12-03T03:02:02.746Z,21.40
2022-12-03T03:03:02.674Z,21.40
2022-12-03T03:04:02.700Z,21.38
2022-12-03T03:05:02.688Z,21.40
2022-12-03T03:06:02.696Z,21.38
2022-12-03T03:07:02.694Z,21.38
2022-12-03T03:08:02.850Z,21.38
2022-12-03T03:09:02.738Z,21.38
2022-12-03T03:10:02.729Z,21.38
2022-12-03T03:11:02.739Z,21.37
2022-12-03T03:12:02.745Z,21.36
2022-12-03T03:13:02.786Z,21.37
2022-12-03T03:14:02.760Z,21.36
2022-12-03T03:15:02.764Z,21.36
2022-12-03T03:16:02.862Z,21.34
2022-12-03T03:17:02.789Z,21.33
2022-12-03T03:18:02.866Z,21.34
2022-12-03T03:19:02.845Z,21.31
2022-12-03T03:20:02.877Z,21.31
2022-12-03T03:21:02.898Z,21.33
2022-12-03T03:22:02.900Z,21.33
2022-12-03T03:23:02.902Z,21.30
2022-12-03T03:24:02.915Z,21.30
2022-12-03T03:25:02.953Z,21.27
2022-12-03T03:26:02.946Z,21.27
2022-12-03T03:27:02.977Z,21.27
2022-12-03T03:28:03.250Z,21.27
2022-12-03T03:29:02.985Z,21.26
2022-12-03T03:30:03.010Z,21.26
2022-12-03T03:31:03.038Z,21.26
2022-12-03T03:32:03.167Z,21.24
2022-12-03T03:33:03.071Z,21.24
2022-12-03T03:34:03.069Z,21.22
2022-12-03T03:35:03.082Z,21.22
2022-12-03T03:36:03.079Z,21.22
2022-12-03T03:37:03.098Z,21.21
2022-12-03T03:38:03.111Z,21.19
2022-12-03T03:39:03.141Z,21.18
2022-12-03T03:40:03.164Z,21.21
2022-12-03T03:41:03.185Z,21.24
2022-12-03T03:42:03.172Z,21.27
2022-12-03T03:43:03.186Z,21.31
2022-12-03T03:44:03.184Z,21.37
2022-12-03T03:45:03.181Z,21.42
2022-12-03T03:46:03.260Z,21.51
2022-12-03T03:47:03.203Z,21.56
2022-12-03T03:48:03.218Z,21.68
2022-12-03T03:49:03.217Z,21.77
2022-12-03T03:50:03.235Z,21.89
2022-12-03T03:51:03.235Z,21.96
2022-12-03T03:52:03.228Z,22.05
2022-12-03T03:53:03.255Z,22.12
2022-12-03T03:54:03.279Z,22.20
2022-12-03T03:55:03.272Z,22.31
2022-12-03T03:56:03.382Z,22.39
2022-12-03T03:57:03.309Z,22.41
2022-12-03T03:58:03.299Z,22.45
2022-12-03T03:59:03.294Z,22.51
2022-12-03T04:00:03.314Z,22.54
2022-12-03T04:01:03.399Z,22.56
2022-12-03T04:02:03.333Z,22.59
2022-12-03T04:03:03.326Z,22.57
2022-12-03T04:04:03.385Z,22.63
2022-12-03T04:05:03.340Z,22.64
2022-12-03T04:06:03.376Z,22.64
2022-12-03T04:07:03.371Z,22.67
2022-12-03T04:08:03.431Z,22.66
2022-12-03T04:09:03.364Z,22.69
2022-12-03T04:10:03.359Z,22.72
2022-12-03T04:11:03.351Z,22.74
2022-12-03T04:12:03.353Z,22.74
2022-12-03T04:13:03.383Z,22.74
2022-12-03T04:14:03.389Z,22.72
2022-12-03T04:15:03.403Z,22.75
2022-12-03T04:16:03.544Z,22.75
2022-12-03T04:17:03.482Z,22.76
2022-12-03T04:18:03.425Z,22.76
2022-12-03T04:19:03.428Z,22.78
2022-12-03T04:20:03.456Z,22.76
2022-12-03T04:21:03.484Z,22.76
2022-12-03T04:22:03.517Z,22.79
2022-12-03T04:23:03.538Z,22.78
2022-12-03T04:24:03.537Z,22.78
2022-12-03T04:25:03.561Z,22.78
2022-12-03T04:26:03.580Z,22.75
2022-12-03T04:27:03.579Z,22.78
2022-12-03T04:28:03.574Z,22.76
2022-12-03T04:29:03.591Z,22.76
2022-12-03T04:30:03.581Z,22.76
2022-12-03T04:31:03.648Z,22.72
2022-12-03T04:32:03.603Z,22.74
2022-12-03T04:33:03.598Z,22.74
2022-12-03T04:34:03.606Z,22.74
2022-12-03T04:35:03.709Z,22.72
2022-12-03T04:36:03.590Z,22.70
2022-12-03T04:37:03.603Z,22.69
2022-12-03T04:38:03.622Z,22.67
2022-12-03T04:39:03.647Z,22.70
2022-12-03T04:40:03.663Z,22.72
2022-12-03T04:41:03.659Z,22.70
2022-12-03T04:42:03.695Z,22.70
2022-12-03T04:43:03.705Z,22.67
2022-12-03T04:44:03.720Z,22.67
2022-12-03T04:45:03.747Z,22.66
2022-12-03T04:46:03.822Z,22.66
2022-12-03T04:47:03.768Z,22.64
2022-12-03T04:48:03.790Z,22.66
2022-12-03T04:49:03.799Z,22.64
2022-12-03T04:50:03.813Z,22.64
2022-12-03T04:51:03.833Z,22.64
2022-12-03T04:52:03.858Z,22.64
2022-12-03T04:53:03.886Z,22.63
2022-12-03T04:54:03.898Z,22.63
2022-12-03T04:55:03.899Z,22.61
2022-12-03T04:56:03.930Z,22.60
2022-12-03T04:57:03.960Z,22.60
2022-12-03T04:58:03.960Z,22.57
2022-12-03T04:59:03.973Z,22.59
2022-12-03T05:00:04.009Z,22.59
2022-12-03T05:01:04.100Z,22.56
2022-12-03T05:02:04.126Z,22.57
2022-12-03T05:03:04.074Z,22.57
2022-12-03T05:04:04.053Z,22.56
2022-12-03T05:05:04.046Z,22.54
2022-12-03T05:06:04.043Z,22.54
2022-12-03T05:07:04.041Z,22.52
2022-12-03T05:08:04.130Z,22.51
2022-12-03T05:09:04.062Z,22.51
2022-12-03T05:10:04.065Z,22.49
2022-12-03T05:11:04.065Z,22.49
2022-12-03T05:12:04.095Z,22.51
2022-12-03T05:13:04.087Z,22.48
2022-12-03T05:14:04.100Z,22.48
2022-12-03T05:15:04.124Z,22.45
2022-12-03T05:16:04.149Z,22.46
2022-12-03T05:17:04.307Z,22.45
2022-12-03T05:18:04.192Z,22.45
2022-12-03T05:19:04.184Z,22.45
2022-12-03T05:20:04.179Z,22.45
2022-12-03T05:21:04.173Z,22.45
2022-12-03T05:22:04.183Z,22.42
2022-12-03T05:23:04.177Z,22.41
2022-12-03T05:24:04.205Z,22.41
2022-12-03T05:25:04.198Z,22.39
2022-12-03T05:26:04.203Z,22.39
2022-12-03T05:27:04.225Z,22.38
2022-12-03T05:28:04.221Z,22.38
2022-12-03T05:29:04.228Z,22.38
2022-12-03T05:30:04.243Z,22.36
2022-12-03T05:31:04.312Z,22.33
2022-12-03T05:32:04.276Z,22.31
2022-12-03T05:33:04.330Z,22.31
2022-12-03T05:34:04.327Z,22.30
2022-12-03T05:35:04.329Z,22.30
2022-12-03T05:36:04.335Z,22.30
2022-12-03T05:37:04.360Z,22.29
2022-12-03T05:38:04.361Z,22.27
2022-12-03T05:39:04.333Z,22.27
2022-12-03T05:40:04.325Z,22.26
2022-12-03T05:41:04.330Z,22.24
2022-12-03T05:42:04.341Z,22.24
2022-12-03T05:43:04.369Z,22.23
2022-12-03T05:44:04.391Z,22.21
2022-12-03T05:45:04.430Z,22.20
2022-12-03T05:46:04.498Z,22.20
2022-12-03T05:47:04.426Z,22.19
2022-12-03T05:48:04.446Z,22.19
2022-12-03T05:49:04.492Z,22.19
2022-12-03T05:50:04.494Z,22.19
2022-12-03T05:51:04.490Z,22.17
2022-12-03T05:52:04.488Z,22.17
2022-12-03T05:53:04.484Z,22.15
2022-12-03T05:54:04.516Z,22.14
2022-12-03T05:55:04.532Z,22.14
2022-12-03T05:56:04.560Z,22.12
2022-12-03T05:57:04.547Z,22.11
2022-12-03T05:58:04.570Z,22.09
2022-12-03T05:59:04.593Z,22.08
2022-12-03T06:00:04.599Z,22.11
2022-12-03T06:01:04.641Z,22.08
2022-12-03T06:02:04.654Z,22.08
2022-12-03T06:03:04.819Z,22.05
2022-12-03T06:04:04.736Z,22.05
2022-12-03T06:05:04.700Z,22.04
2022-12-03T06:06:04.650Z,22.02
2022-12-03T06:07:06.615Z,22.02
2022-12-03T06:08:04.777Z,22.01
2022-12-03T06:09:04.672Z,21.98
2022-12-03T06:10:04.689Z,21.98
2022-12-03T06:11:04.681Z,21.96
2022-12-03T06:12:04.678Z,21.96
2022-12-03T06:13:04.699Z,21.94
2022-12-03T06:14:04.736Z,21.93
2022-12-03T06:15:04.736Z,21.94
2022-12-03T06:16:04.797Z,21.93
2022-12-03T06:17:04.766Z,21.91
2022-12-03T06:18:04.772Z,21.90
2022-12-03T06:19:04.772Z,21.90
2022-12-03T06:20:04.800Z,21.90
2022-12-03T06:21:04.851Z,21.86
2022-12-03T06:22:04.838Z,21.85
2022-12-03T06:23:04.874Z,21.85
2022-12-03T06:24:04.877Z,21.85
2022-12-03T06:25:07.080Z,21.83
2022-12-03T06:26:04.861Z,21.83
2022-12-03T06:27:04.868Z,21.81
2022-12-03T06:28:04.869Z,21.79
2022-12-03T06:29:04.871Z,21.77
2022-12-03T06:30:04.867Z,21.75
2022-12-03T06:31:04.968Z,21.74
2022-12-03T06:32:04.896Z,21.74
2022-12-03T06:33:04.924Z,21.73
2022-12-03T06:34:04.924Z,21.73
2022-12-03T06:35:04.921Z,21.73
2022-12-03T06:36:04.925Z,21.73
2022-12-03T06:37:04.949Z,21.70
2022-12-03T06:38:04.937Z,21.68
2022-12-03T06:39:04.960Z,21.67
2022-12-03T06:40:04.951Z,21.68
2022-12-03T06:41:04.946Z,21.67
2022-12-03T06:42:04.938Z,21.64
2022-12-03T06:43:04.951Z,21.64
2022-12-03T06:44:04.958Z,21.64
2022-12-03T06:45:04.970Z,21.64
2022-12-03T06:46:05.015Z,21.64
2022-12-03T06:47:04.982Z,21.63
2022-12-03T06:48:04.970Z,21.61
2022-12-03T06:49:05.003Z,21.59
2022-12-03T06:50:04.999Z,21.56
2022-12-03T06:51:05.017Z,21.58
2022-12-03T06:52:05.039Z,21.56
2022-12-03T06:53:05.068Z,21.53
2022-12-03T06:54:05.066Z,21.53
2022-12-03T06:55:05.085Z,21.53
2022-12-03T06:56:05.100Z,21.52
2022-12-03T06:57:05.124Z,21.52
2022-12-03T06:58:05.147Z,21.51
2022-12-03T06:59:05.146Z,21.49
2022-12-03T07:00:05.171Z,21.49
2022-12-03T07:01:05.176Z,21.49
2022-12-03T07:02:05.341Z,21.49
2022-12-03T07:03:05.302Z,21.48
2022-12-03T07:04:05.251Z,21.49
2022-12-03T07:05:05.195Z,21.48
2022-12-03T07:06:05.231Z,21.48
2022-12-03T07:07:05.245Z,21.46
2022-12-03T07:08:05.332Z,21.48
2022-12-03T07:09:05.293Z,21.51
2022-12-03T07:10:05.291Z,21.55
2022-12-03T07:11:05.317Z,21.58
2022-12-03T07:12:05.308Z,21.64
2022-12-03T07:13:05.305Z,21.74
2022-12-03T07:14:05.931Z,21.83
2022-12-03T07:15:05.332Z,21.90
2022-12-03T07:16:05.366Z,21.96
2022-12-03T07:17:05.341Z,22.06
2022-12-03T07:18:05.335Z,22.14
2022-12-03T07:19:05.342Z,22.24
2022-12-03T07:20:05.329Z,22.33
2022-12-03T07:21:05.357Z,22.39
2022-12-03T07:22:05.357Z,22.46
2022-12-03T07:23:05.368Z,22.57
2022-12-03T07:24:05.370Z,22.60
2022-12-03T07:25:05.417Z,22.61
2022-12-03T07:26:05.412Z,22.66
2022-12-03T07:27:05.426Z,22.69
2022-12-03T07:28:05.451Z,22.70
2022-12-03T07:29:05.493Z,22.74
2022-12-03T07:30:05.471Z,22.75
2022-12-03T07:31:05.565Z,22.78
2022-12-03T07:32:05.518Z,22.81
2022-12-03T07:33:05.510Z,22.82
2022-12-03T07:34:05.528Z,22.86
2022-12-03T07:35:05.529Z,22.86
2022-12-03T07:36:05.544Z,22.89
2022-12-03T07:37:05.569Z,22.91
2022-12-03T07:38:05.578Z,22.91
2022-12-03T07:39:05.573Z,22.93
2022-12-03T07:40:05.571Z,22.89
2022-12-03T07:41:05.609Z,22.91
2022-12-03T07:42:05.601Z,22.93
2022-12-03T07:43:05.595Z,22.93
2022-12-03T07:44:10.859Z,22.94
2022-12-03T07:45:05.592Z,22.96
2022-12-03T07:46:05.595Z,22.96
2022-12-03T07:47:05.693Z,22.96
2022-12-03T07:48:05.622Z,22.96
2022-12-03T07:49:05.645Z,22.96
2022-12-03T07:50:05.659Z,22.96
2022-12-03T07:51:05.674Z,22.94
2022-12-03T07:52:05.677Z,22.96
2022-12-03T07:53:05.677Z,22.97
2022-12-03T07:54:05.688Z,22.96
2022-12-03T07:55:05.711Z,22.97
2022-12-03T07:56:05.709Z,22.97
2022-12-03T07:57:05.763Z,22.96
2022-12-03T07:58:05.756Z,22.96
2022-12-03T07:59:05.793Z,22.94
2022-12-03T08:00:05.784Z,22.94
2022-12-03T08:01:05.838Z,22.96
2022-12-03T08:02:05.855Z,22.96
2022-12-03T08:03:05.772Z,22.94
2022-12-03T08:04:05.794Z,22.94
2022-12-03T08:05:05.810Z,22.94
2022-12-03T08:06:05.824Z,22.94
2022-12-03T08:07:05.851Z,22.93
2022-12-03T08:08:05.985Z,22.94
2022-12-03T08:09:05.876Z,22.93
2022-12-03T08:10:05.874Z,22.91
2022-12-03T08:11:05.895Z,22.93
2022-12-03T08:12:05.920Z,22.91
2022-12-03T08:13:05.942Z,22.89
2022-12-03T08:14:05.935Z,22.93
2022-12-03T08:15:05.958Z,22.88
2022-12-03T08:16:06.030Z,22.89
2022-12-03T08:17:05.970Z,22.88
2022-12-03T08:18:05.972Z,22.88
2022-12-03T08:19:05.976Z,22.86
2022-12-03T08:20:06.011Z,22.86
2022-12-03T08:21:06.006Z,22.85
2022-12-03T08:22:06.023Z,22.85
2022-12-03T08:23:06.046Z,22.85
2022-12-03T08:24:06.075Z,22.84
2022-12-03T08:25:06.086Z,22.84
2022-12-03T08:26:06.086Z,22.84
2022-12-03T08:27:06.091Z,22.82
2022-12-03T08:28:06.082Z,22.81
2022-12-03T08:29:06.125Z,22.81
2022-12-03T08:30:06.121Z,22.79
2022-12-03T08:31:06.128Z,22.79
2022-12-03T08:32:06.169Z,22.79
2022-12-03T08:33:06.114Z,22.79
2022-12-03T08:34:06.131Z,22.78
2022-12-03T08:35:06.155Z,22.76
2022-12-03T08:36:06.150Z,22.78
2022-12-03T08:37:06.172Z,22.76
2022-12-03T08:38:06.201Z,22.75
2022-12-03T08:39:06.205Z,22.74
2022-12-03T08:40:06.198Z,22.72
2022-12-03T08:41:06.207Z,22.72
2022-12-03T08:42:12.140Z,22.70
2022-12-03T08:43:06.227Z,22.70
2022-12-03T08:44:06.255Z,22.69
2022-12-03T08:45:06.274Z,22.69
2022-12-03T08:46:06.356Z,22.66
2022-12-03T08:47:06.295Z,22.66
2022-12-03T08:48:06.288Z,22.64
2022-12-03T08:49:06.288Z,22.64
2022-12-03T08:50:06.284Z,22.64
2022-12-03T08:51:06.275Z,22.64
2022-12-03T08:52:06.279Z,22.63
2022-12-03T08:53:06.289Z,22.61
2022-12-03T08:54:06.296Z,22.61
2022-12-03T08:55:06.319Z,22.60
2022-12-03T08:56:06.322Z,22.59
2022-12-03T08:57:06.306Z,22.57
2022-12-03T08:58:06.329Z,22.59
2022-12-03T08:59:06.330Z,22.59
2022-12-03T09:00:06.332Z,22.57
2022-12-03T09:01:06.456Z,22.56
2022-12-03T09:02:06.328Z,22.56
2022-12-03T09:03:06.336Z,22.54
2022-12-03T09:04:06.414Z,22.54
2022-12-03T09:05:06.386Z,22.52
2022-12-03T09:06:06.385Z,22.52
2022-12-03T09:07:06.410Z,22.51
2022-12-03T09:08:06.494Z,22.51
2022-12-03T09:09:06.980Z,22.49
2022-12-03T09:10:06.434Z,22.48
2022-12-03T09:11:06.420Z,22.46
2022-12-03T09:12:06.445Z,22.45
2022-12-03T09:13:06.446Z,22.46
2022-12-03T09:14:06.676Z,22.45
2022-12-03T09:16:32.491Z,22.46
2022-12-03T09:17:32.409Z,22.44
2022-12-03T09:18:32.403Z,22.42
2022-12-03T09:19:32.408Z,22.41
2022-12-03T09:20:32.410Z,22.39
2022-12-03T09:21:32.428Z,22.39
2022-12-03T09:22:32.422Z,22.38
2022-12-03T09:23:32.427Z,22.38
2022-12-03T09:24:32.417Z,22.38
2022-12-03T09:25:32.427Z,22.36
2022-12-03T09:26:32.428Z,22.38
2022-12-03T09:27:32.450Z,22.35
2022-12-03T09:28:32.469Z,22.35
2022-12-03T09:29:32.466Z,22.33
2022-12-03T09:30:32.466Z,22.33
2022-12-03T09:31:32.543Z,22.30
2022-12-03T09:32:32.601Z,22.31
2022-12-03T09:33:32.490Z,22.30
2022-12-03T09:34:32.499Z,22.29
2022-12-03T09:35:32.512Z,22.26
2022-12-03T09:36:32.536Z,22.26
2022-12-03T09:37:32.531Z,22.26
2022-12-03T09:38:32.547Z,22.24
2022-12-03T09:39:32.593Z,22.26
2022-12-03T09:40:32.551Z,22.24
2022-12-03T09:41:32.550Z,22.23
2022-12-03T09:42:32.548Z,22.21
2022-12-03T09:44:02.661Z,22.21
2022-12-03T09:44:32.582Z,22.20
2022-12-03T09:45:32.733Z,22.19
2022-12-03T09:46:32.708Z,22.19
2022-12-03T09:47:32.611Z,22.17
2022-12-03T09:48:32.631Z,22.17
2022-12-03T09:49:32.645Z,22.17
2022-12-03T09:50:32.640Z,22.17
2022-12-03T09:51:32.640Z,22.15
2022-12-03T09:52:32.658Z,22.14
2022-12-03T09:53:35.589Z,22.14
2022-12-03T09:54:32.669Z,22.12
2022-12-03T09:55:32.683Z,22.11
2022-12-03T09:56:32.712Z,22.12
2022-12-03T09:57:32.716Z,22.09
2022-12-03T09:58:34.947Z,22.08
2022-12-03T09:59:32.744Z,22.08
2022-12-03T10:00:32.765Z,22.06
2022-12-03T10:01:32.902Z,22.05
2022-12-03T10:02:32.801Z,22.06
2022-12-03T10:03:32.836Z,22.05
2022-12-03T10:04:32.887Z,22.05
2022-12-03T10:05:32.830Z,22.02
2022-12-03T10:06:32.868Z,22.02
2022-12-03T10:07:32.932Z,22.02
2022-12-03T10:08:32.923Z,21.99
2022-12-03T10:09:32.870Z,21.98
2022-12-03T10:10:32.868Z,21.96
2022-12-03T10:11:32.891Z,21.96
2022-12-03T10:12:32.909Z,21.96
2022-12-03T10:13:32.937Z,21.96
2022-12-03T10:14:32.965Z,21.94
2022-12-03T10:15:32.963Z,21.93
2022-12-03T10:16:33.080Z,21.94
2022-12-03T10:17:32.987Z,21.93
2022-12-03T10:18:38.283Z,21.93
2022-12-03T10:19:33.002Z,21.94
2022-12-03T10:20:33.037Z,21.93
2022-12-03T10:21:33.036Z,21.93
2022-12-03T10:22:33.043Z,21.93
2022-12-03T10:23:33.034Z,21.91
2022-12-03T10:24:33.058Z,21.91
2022-12-03T10:25:33.061Z,21.90
2022-12-03T10:26:33.065Z,21.89
2022-12-03T10:27:33.078Z,21.90
2022-12-03T10:28:33.099Z,21.89
2022-12-03T10:29:34.334Z,21.89
2022-12-03T10:30:33.182Z,21.89
2022-12-03T10:31:33.149Z,21.86
2022-12-03T10:32:33.093Z,21.86
2022-12-03T10:33:33.115Z,21.85
2022-12-03T10:34:33.098Z,21.85
2022-12-03T10:35:33.100Z,21.83
2022-12-03T10:36:33.182Z,21.82
2022-12-03T10:37:33.093Z,21.83
2022-12-03T10:38:33.118Z,21.79
2022-12-03T10:39:33.136Z,21.82
2022-12-03T10:40:33.164Z,21.79
2022-12-03T10:41:33.148Z,21.75
2022-12-03T10:42:33.169Z,21.79
2022-12-03T10:43:33.254Z,21.79
2022-12-03T10:44:33.210Z,21.75
2022-12-03T10:45:33.209Z,21.74
2022-12-03T10:46:33.333Z,21.74
2022-12-03T10:47:33.450Z,21.73
2022-12-03T10:48:33.269Z,21.74
2022-12-03T10:49:33.278Z,21.73
2022-12-03T10:50:33.308Z,21.71
2022-12-03T10:51:33.332Z,21.70
2022-12-03T10:52:33.380Z,21.70
2022-12-03T10:53:33.400Z,21.68
2022-12-03T10:54:33.404Z,21.70
2022-12-03T10:55:33.426Z,21.68
2022-12-03T10:56:33.438Z,21.70
2022-12-03T10:57:33.462Z,21.70
2022-12-03T10:58:33.464Z,21.70
2022-12-03T10:59:33.472Z,21.70
2022-12-03T11:00:33.490Z,21.67
2022-12-03T11:01:33.614Z,21.67
2022-12-03T11:02:33.524Z,21.64
2022-12-03T11:03:33.608Z,21.66
2022-12-03T11:04:33.524Z,21.66
2022-12-03T11:05:33.534Z,21.66
2022-12-03T11:06:33.539Z,21.66
2022-12-03T11:07:33.653Z,21.64
2022-12-03T11:08:33.613Z,21.63
2022-12-03T11:09:33.578Z,21.61
2022-12-03T11:10:33.609Z,21.59
2022-12-03T11:11:33.608Z,21.59
2022-12-03T11:12:33.611Z,21.59
2022-12-03T11:13:33.626Z,21.58
2022-12-03T11:14:33.631Z,21.56
2022-12-03T11:15:33.713Z,21.56
2022-12-03T11:16:33.714Z,21.55
2022-12-03T11:17:33.653Z,21.55
2022-12-03T11:18:33.662Z,21.53
2022-12-03T11:19:33.668Z,21.55
2022-12-03T11:20:33.667Z,21.55
2022-12-03T11:21:33.695Z,21.55
2022-12-03T11:22:33.680Z,21.56
2022-12-03T11:23:33.724Z,21.56
2022-12-03T11:24:33.956Z,21.58
2022-12-03T11:25:33.739Z,21.58
2022-12-03T11:26:33.725Z,21.58
2022-12-03T11:27:33.729Z,21.56
2022-12-03T11:28:33.742Z,21.61
2022-12-03T11:29:33.735Z,21.66
2022-12-03T11:30:33.735Z,21.71
2022-12-03T11:31:33.858Z,21.77
2022-12-03T11:32:33.749Z,21.85
2022-12-03T11:33:33.730Z,21.93
2022-12-03T11:34:33.754Z,22.04
2022-12-03T11:35:33.759Z,22.14
2022-12-03T11:37:00.281Z,22.20
2022-12-03T11:37:33.790Z,22.29
2022-12-03T11:38:33.766Z,22.31
2022-12-03T11:39:33.766Z,22.38
2022-12-03T11:40:39.346Z,22.46
2022-12-03T11:41:33.759Z,22.52
2022-12-03T11:42:33.791Z,22.51
2022-12-03T11:43:33.818Z,22.51
2022-12-03T11:44:33.827Z,22.52
2022-12-03T11:45:33.832Z,22.57
2022-12-03T11:46:33.899Z,22.61
2022-12-03T11:47:33.854Z,22.67
2022-12-03T11:48:33.870Z,22.70
2022-12-03T11:49:33.867Z,22.74
2022-12-03T11:50:39.644Z,22.72
2022-12-03T11:51:33.888Z,22.70
2022-12-03T11:52:33.875Z,22.74
2022-12-03T11:53:33.875Z,22.74
2022-12-03T11:54:33.882Z,22.75
2022-12-03T11:55:33.897Z,22.76
2022-12-03T11:56:33.923Z,22.76
2022-12-03T11:57:33.928Z,22.79
2022-12-03T11:58:33.938Z,22.81
2022-12-03T11:59:33.940Z,22.82
2022-12-03T12:00:33.962Z,22.84
2022-12-03T12:01:38.272Z,22.88
2022-12-03T12:02:34.087Z,22.85
2022-12-03T12:03:34.246Z,22.86
2022-12-03T12:04:34.128Z,22.85
2022-12-03T12:05:34.008Z,22.82
2022-12-03T12:06:34.015Z,22.84
2022-12-03T12:07:34.068Z,22.85
2022-12-03T12:08:34.014Z,22.84
2022-12-03T12:09:34.009Z,22.85
2022-12-03T12:10:34.002Z,22.84
2022-12-03T12:11:34.001Z,22.85
2022-12-03T12:12:34.220Z,22.85
2022-12-03T12:13:34.030Z,22.84
2022-12-03T12:14:34.054Z,22.84
2022-12-03T12:15:34.048Z,22.85
2022-12-03T12:16:34.147Z,22.85
2022-12-03T12:17:34.062Z,22.84
2022-12-03T12:18:34.069Z,22.84
2022-12-03T12:19:34.072Z,22.84
2022-12-03T12:20:34.095Z,22.85
2022-12-03T12:21:34.128Z,22.85
2022-12-03T12:22:34.140Z,22.84
2022-12-03T12:23:34.150Z,22.85
2022-12-03T12:24:34.156Z,22.85
2022-12-03T12:25:34.200Z,22.84
2022-12-03T12:26:34.224Z,22.85
2022-12-03T12:27:34.209Z,22.86
2022-12-03T12:28:34.263Z,22.85
2022-12-03T12:29:34.259Z,22.84
2022-12-03T12:30:34.258Z,22.84
2022-12-03T12:31:34.333Z,22.84
2022-12-03T12:32:34.289Z,22.86
2022-12-03T12:33:34.304Z,22.86
2022-12-03T12:34:34.302Z,22.85
2022-12-03T12:35:34.310Z,22.88
2022-12-03T12:36:34.312Z,22.85
2022-12-03T12:37:34.322Z,22.85
2022-12-03T12:38:34.330Z,22.86
2022-12-03T12:39:34.346Z,22.85
2022-12-03T12:40:34.362Z,22.84
2022-12-03T12:41:34.363Z,22.82
2022-12-03T12:42:34.386Z,22.81
2022-12-03T12:43:34.414Z,22.81
2022-12-03T12:44:34.460Z,22.79
2022-12-03T12:45:34.476Z,22.78
2022-12-03T12:46:49.895Z,22.76
2022-12-03T12:47:34.576Z,22.75
2022-12-03T12:48:34.475Z,22.78
2022-12-03T12:49:34.484Z,22.76
2022-12-03T12:50:34.492Z,22.74
2022-12-03T12:51:34.491Z,22.75
2022-12-03T12:52:34.523Z,22.74
2022-12-03T12:53:34.514Z,22.74